Young, AZ

6:56 AM MST on October 22, 2014 (GMT -0700)
KAZYOUNG4 | Change Station
CLOSE
Current Station
Personal Weather Station
Location: Young, AZ
Elevation: 5328 ft
Nearby Weather Stations

Elev 5328 ft 34.09 °N, 111.00 °W | Updated 26 minutes ago

Clear
Clear
44.9 °F
Feels Like 45 °F
N
0.0
Wind Variable Wind from WSW
Gusts 0.0 mph

Today
High -- | Low -- °F
--% Chance of Precip.
Yesterday
High -- | Low -- °F
Precip. -- in
6:35 AM 5:42 PM
Waning Crescent, 2% visible
Pressure 30.14 in
Visibility 10.0 miles
Clouds Clear
Windchill 45 °F
Dew Point 43 °F
Humidity 92%
Rainfall 0.00 in
Snow Depth Not available.
UV 0 out of 12
Pollen 5.40 out of 12
PM2.5 Moderate
Flu Activity No Activity
METAR KPAN 221335Z AUTO 06004KT 10SM CLR 13/07 A3014 RMK AO2

More Conditions Fewer Conditions

Pressure 30.14 in
Visibility 10.0 miles
Clouds Clear
Windchill 45 °F
Dew Point 43 °F
Humidity 92%
Rainfall 0.00 in
Snow Depth Not available.
UV 0 out of 12
Pollen 5.40 out of 12
PM2.5 Moderate
Flu Activity No Activity
METAR KPAN 221335Z AUTO 06004KT 10SM CLR 13/07 A3014 RMK AO2

More Conditions Fewer Conditions

10-Day Weather Forecast

Almanac

Astronomy

Oct. 22, 2014 Rise Set
Actual Time 6:35 AM MST 5:42 PM MST
Civil Twilight 6:10 AM MST 6:07 PM MST
Nautical Twilight 5:40 AM MST 6:36 PM MST
Astronomical Twilight 5:11 AM MST 7:05 PM MST
Moon 5:23 AM MST 5:08 PM MST
Length of Visible Light 11h 57m
Length of Day
11h 06m
Tomorrow will be 1m 58s shorter.
Waning Crescent, 2% of the Moon is Illuminated
Today
Waning Crescent
Oct 23
New
Oct 30
First Quarter
Nov 6
Full
Nov 14
Last Quarter

Today's Extremes

State Highs State Lows

Community

WunderPhotos

Upload Photos

1,763,919 photos uploaded!

Nearby

Air Quality

  Air Quality AQ Index Pollutant
Yesterday Good
OZONE
Yesterday Good
PM10
Current Moderate
PM2.5
Wednesday Moderate
OZONE
Wednesday Good
PM10
Wednesday Good
CO
Thursday Good
OZONE
Thursday Good
PM10
Thursday Good
CO

Snow Depth

Station Depth Elevation
Promontory 1 in 7930 ft
Workman Creek 0 in 6900 ft
Baker Butte 1 in 7300 ft
Heber 0 in 7640 ft
Happy Jack 0 in 7630 ft

Earthquake Activity

City Distance Mag. Time & Date
No recent earthquake activity has been reported nearby.
Minimum magnitude displayed is 2.5.

Coastal Water Temperatures

Place Temperature
No Stations Reporting

Nearby Weather Stations